Kodiak Airport Kodiak US
ICAO: PADQ
IATA:
Category: Medium
Scheduled Services:

Elevation: 78 ft
TransAlt. 18000 ft.

Airport Communications:
ANCHORAGE CNTR:125.1
ATIS:135.5
CTAF:119.8
KENAI RDO:119.8
GND:121.9
TWEB:117.1
OPS:156.8
KENAI RDO:122.2
TWR:119.8
UNICOM:122.8

PADQ Zoom In..

Runways:

(A) RW 07 length 7550 ft width 150 ft
---- / hdg 74

(B) RW 11 length 5400 ft width 150 ft
---- / hdg 109

(C) RW 18 length 5010 ft width 150 ft
---- / hdg 184

(D) RW 25 length 7550 ft width 150 ft
ILS 110.90 / hdg 254

(E) RW 29 length 5400 ft width 150 ft
---- / hdg 289

(F) RW 36 length 5010 ft width 150 ft
---- / hdg 4

Location; PADQ
Day. 23 / Time. 15.10 Zulu
* Altimeter: 29.73
* Temperature: -04° c. -24.8°f.
* Wind from: 290° Speed 15 kn.
Dewpoint: -06° c.
Visibility: 9 Statute Miles.
Clouds: Broken 1300 ft.
Conditions: Light Snow.

PADQ 231510Z 29015KT 9SM -SN BKN013 M04/M06 A2973 RMK AO2 PK WND 29026/1456 P0000 T10391061


Wind From 290°
Speed 15 kn.

YouTube Music Video
 
jpsmedia.com for Web Design  worldairports.se 2018   terms of use